Meteorología y climatología de Navarra
Datos de la estación - Meteo Navarra

Estación de Aralar GN

Altitud 1344 m.


Datos desde el 23/05/2020 hasta el 24/05/2020 en horario solar
Los datos son PROVISIONALES

Anterior Página 1 de 1 Siguiente Descargar: Formato para Excel 2000 o superior   Formato csv   Formato para OpenOffice Calc
Fecha Temperatura Humedad relativa Radiación global Insolación Precipitación Vel. viento 10 m Vel. viento 10 m Dir. viento 10 m
ºC % W/m² s l/m² m/s km/h º
23/05/2020 0:00 10.0 100 0.0 0 0.0 4.3 15.6 344
23/05/2020 0:10 10.1 100 0.0 0 0.0 4.2 15.0 341
23/05/2020 0:20 10.0 100 0.0 0 0.0 3.4 12.2 334
23/05/2020 0:30 10.0 100 0.0 0 0.0 3.0 10.6 336
23/05/2020 0:40 10.0 100 0.0 0 0.0 3.6 12.9 332
23/05/2020 0:50 10.0 100 0.0 0 0.0 3.2 11.5 330
23/05/2020 1:00 9.9 100 0.0 0 0.0 3.2 11.5 329
23/05/2020 1:10 9.9 100 0.0 0 0.0 3.9 14.0 332
23/05/2020 1:20 9.9 100 0.0 0 0.0 4.8 17.3 336
23/05/2020 1:30 9.9 100 0.0 0 0.0 6.3 22.7 337
23/05/2020 1:40 9.9 100 0.0 0 0.0 6.6 23.9 339
23/05/2020 1:50 9.7 100 0.0 0 0.0 6.8 24.6 339
23/05/2020 2:00 9.8 100 0.0 0 0.0 6.7 24.2 337
23/05/2020 2:10 9.9 100 0.0 0 0.0 6.6 23.7 340
23/05/2020 2:20 9.8 100 0.0 0 0.0 6.4 22.9 339
23/05/2020 2:30 9.8 100 0.0 0 0.1 5.2 18.6 335
23/05/2020 2:40 9.8 100 0.0 0 0.0 4.8 17.1 336
23/05/2020 2:50 9.8 100 0.0 0 0.0 5.1 18.4 340
23/05/2020 3:00 9.9 100 0.0 0 0.0 6.1 22.1 340
23/05/2020 3:10 9.9 100 0.0 0 0.0 6.6 23.6 342
23/05/2020 3:20 9.9 100 0.0 0 0.0 6.4 23.2 341
23/05/2020 3:30 9.9 100 0.0 0 0.0 6.0 21.7 345
23/05/2020 3:40 9.8 100 0.0 0 0.0 6.6 23.7 341
23/05/2020 3:50 9.8 100 0.0 0 0.0 6.4 22.9 342
23/05/2020 4:00 9.9 100 0.0 0 0.1 6.2 22.2 341
23/05/2020 4:10 9.8 100 0.0 0 0.0 6.6 23.6 342
23/05/2020 4:20 9.7 100 0.0 0 0.0 6.8 24.5 343
23/05/2020 4:30 9.8 100 0.0 0 0.0 6.6 23.8 340
23/05/2020 4:40 9.7 100 0.0 0 0.1 5.7 20.6 337
23/05/2020 4:50 9.6 100 0.0 0 0.0 6.3 22.6 339
23/05/2020 5:00 9.5 100 0.0 0 0.1 6.4 23.0 344
23/05/2020 5:10 9.7 100 0.0 0 0.0 6.2 22.2 342
23/05/2020 5:20 9.6 100 1.6 0 0.1 5.8 20.8 348
23/05/2020 5:30 9.6 100 21.2 0 0.0 6.0 21.7 348
23/05/2020 5:40 9.6 100 31.4 0 0.0 6.1 21.8 344
23/05/2020 5:50 9.7 100 49.4 0 0.1 6.2 22.4 343
23/05/2020 6:00 9.8 100 42.5 0 0.0 5.9 21.4 345
23/05/2020 6:10 9.7 100 45.2 0 0.1 6.7 24.0 345
23/05/2020 6:20 9.7 100 49.7 0 0.1 7.2 25.9 345
23/05/2020 6:30 9.7 100 52.8 0 0.0 7.2 26.0 344
23/05/2020 6:40 9.6 100 64.9 0 0.1 6.8 24.4 347
23/05/2020 6:50 9.7 100 58.4 0 0.0 6.3 22.5 344
23/05/2020 7:00 9.8 100 56.2 0 0.0 5.9 21.1 342
23/05/2020 7:10 9.8 100 73.8 0 0.1 6.4 23.1 343
23/05/2020 7:20 9.8 100 77.0 0 0.0 6.4 23.1 343
23/05/2020 7:30 9.9 100 95.2 0 0.0 5.5 19.7 340
23/05/2020 7:40 10.0 100 117.4 0 0.1 5.3 19.1 334
23/05/2020 7:50 10.2 100 146.5 0 0.0 6.2 22.2 339
23/05/2020 8:00 10.2 100 197.2 0 0.0 5.8 20.8 341
23/05/2020 8:10 10.3 100 232.3 0 0.1 6.2 22.3 338
23/05/2020 8:20 10.2 100 230.4 0 0.0 6.5 23.5 337
23/05/2020 8:30 9.8 100 273.6 0 0.2 8.6 31.0 340
23/05/2020 8:40 9.4 100 290.2 0 0.1 8.6 31.1 339
23/05/2020 8:50 9.3 100 257.1 0 0.3 9.2 33.2 340
23/05/2020 9:00 9.0 100 318.9 112 0.1 9.7 34.9 341
23/05/2020 9:10 9.0 100 378.0 200 0.1 9.6 34.5 340
23/05/2020 9:20 8.8 100 264.7 0 0.0 9.8 35.2 342
23/05/2020 9:30 8.6 100 262.2 0 0.1 9.8 35.3 342
23/05/2020 9:40 8.5 100 251.4 0 0.0 9.3 33.4 341
23/05/2020 9:50 8.4 100 254.1 0 0.1 8.8 31.5 340
23/05/2020 10:00 8.5 100 293.5 0 0.0 8.9 32.0 341
23/05/2020 10:10 8.6 100 309.8 0 0.1 8.1 29.2 343
23/05/2020 10:20 8.7 100 355.5 0 0.1 9.7 35.0 347
23/05/2020 10:30 8.3 100 348.2 0 0.1 9.4 33.7 340
23/05/2020 10:40 7.8 100 301.2 0 0.0 9.9 35.6 338
23/05/2020 10:50 7.6 100 319.7 0 0.1 9.9 35.5 342
23/05/2020 11:00 7.7 100 335.9 0 0.0 9.2 33.1 349
23/05/2020 11:10 7.7 100 345.0 0 0.1 10.1 36.4 348
23/05/2020 11:20 7.6 100 364.6 0 0.0 10.0 36.0 346
23/05/2020 11:30 8.0 100 547.3 408 0.0 9.8 35.1 348
23/05/2020 11:40 8.0 100 427.6 78 0.0 9.1 32.7 345
23/05/2020 11:50 7.9 100 451.5 194 0.0 8.9 32.1 345
23/05/2020 12:00 8.0 100 564.1 490 0.0 9.6 34.7 353
23/05/2020 12:10 8.0 100 419.7 24 0.0 9.5 34.3 354
23/05/2020 12:20 8.0 100 403.5 0 0.0 9.0 32.3 351
23/05/2020 12:30 8.0 100 363.0 0 0.0 8.5 30.5 352
23/05/2020 12:40 8.0 100 389.6 0 0.0 8.3 29.8 348
23/05/2020 12:50 8.0 100 354.9 6 0.0 8.5 30.5 350
23/05/2020 13:00 7.9 100 318.1 0 0.1 8.7 31.4 348
23/05/2020 13:10 7.4 100 294.1 0 0.1 8.7 31.4 350
23/05/2020 13:20 6.9 100 256.0 0 0.0 8.6 30.9 344
23/05/2020 13:30 6.6 100 321.3 0 0.0 8.4 30.2 344
23/05/2020 13:40 6.5 100 350.4 0 0.0 7.5 26.9 344
23/05/2020 13:50 6.5 100 482.0 410 0.0 8.4 30.2 343
23/05/2020 14:00 6.4 100 424.9 26 0.0 8.7 31.2 343
23/05/2020 14:10 6.4 100 402.2 48 0.0 9.6 34.6 345
23/05/2020 14:20 6.6 100 388.5 14 0.0 9.3 33.5 343
23/05/2020 14:30 6.6 100 417.4 186 0.0 9.3 33.4 345
23/05/2020 14:40 6.6 100 400.8 92 0.0 9.0 32.5 345
23/05/2020 14:50 6.8 100 436.8 288 0.0 9.5 34.0 345
23/05/2020 15:00 6.8 100 367.0 120 0.0 10.3 37.1 349
23/05/2020 15:10 6.7 100 325.9 0 0.0 9.8 35.2 348
23/05/2020 15:20 6.7 100 301.8 0 0.0 9.5 34.3 351
23/05/2020 15:30 6.8 100 374.6 246 0.0 10.3 37.2 350
23/05/2020 15:40 6.7 100 384.0 478 0.0 11.3 40.6 352
23/05/2020 15:50 6.6 100 344.7 192 0.0 11.7 42.3 353
23/05/2020 16:00 6.7 100 263.6 0 0.0 11.5 41.3 350
23/05/2020 16:10 6.6 100 212.2 0 0.0 11.0 39.5 355
23/05/2020 16:20 6.6 100 195.9 0 0.0 10.8 39.0 356
23/05/2020 16:30 6.7 100 183.5 0 0.0 11.8 42.4 355
23/05/2020 16:40 6.7 100 154.9 0 0.0 12.4 44.7 355
23/05/2020 16:50 6.7 100 135.4 0 0.0 11.7 42.1 359
23/05/2020 17:00 6.7 100 157.6 6 0.0 11.9 42.7 354
23/05/2020 17:10 6.5 100 138.4 0 0.0 11.3 40.8 351
23/05/2020 17:20 6.6 100 106.0 16 0.0 9.9 35.5 349
23/05/2020 17:30 6.5 100 100.3 0 0.0 9.6 34.5 350
23/05/2020 17:40 6.3 100 95.3 0 0.0 10.2 36.8 347
23/05/2020 17:50 6.2 100 89.6 0 0.0 9.7 34.8 346
23/05/2020 18:00 6.2 100 62.4 0 0.0 9.4 34.0 345
23/05/2020 18:10 5.9 100 79.4 0 0.0 11.2 40.4 346
23/05/2020 18:20 5.8 100 59.0 0 0.0 11.0 39.7 347
23/05/2020 18:30 5.6 100 50.2 0 0.0 10.9 39.2 348
23/05/2020 18:40 5.5 100 43.5 18 0.0 10.7 38.3 345
23/05/2020 18:50 5.3 100 26.5 0 0.0 10.7 38.5 345
23/05/2020 19:00 5.2 100 22.9 0 0.0 11.6 41.6 348
23/05/2020 19:10 5.1 100 6.9 0 0.0 11.3 40.8 349
23/05/2020 19:20 4.9 100 0.0 0 0.0 11.0 39.5 351
23/05/2020 19:30 5.0 100 0.0 0 0.0 10.4 37.3 351
23/05/2020 19:40 4.9 100 0.0 0 0.0 9.0 32.3 349
23/05/2020 19:50 5.0 100 0.0 0 0.0 9.2 33.2 346
23/05/2020 20:00 5.0 100 0.0 0 0.0 8.7 31.4 349
23/05/2020 20:10 5.0 100 0.0 0 0.0 8.0 28.7 348
23/05/2020 20:20 5.1 100 0.0 0 0.0 8.2 29.6 348
23/05/2020 20:30 5.2 100 0.0 0 0.0 8.3 29.8 351
23/05/2020 20:40 5.2 100 0.0 0 0.0 9.0 32.3 354
23/05/2020 20:50 5.2 100 0.0 0 0.0 8.8 31.5 351
23/05/2020 21:00 5.4 100 0.0 0 0.0 9.1 32.6 352
23/05/2020 21:10 5.5 100 0.0 0 0.0 8.7 31.4 350
23/05/2020 21:20 5.5 100 0.0 0 0.1 8.9 32.0 356
23/05/2020 21:30 5.5 100 0.0 0 0.0 7.8 28.1 356
23/05/2020 21:40 5.6 100 0.0 0 0.0 8.9 32.0 352
23/05/2020 21:50 5.4 100 0.0 0 0.0 9.0 32.4 352
23/05/2020 22:00 5.3 100 0.0 0 0.0 9.7 34.8 352
23/05/2020 22:10 5.3 100 0.0 0 0.0 10.1 36.5 352
23/05/2020 22:20 5.3 100 0.0 0 0.0 9.4 33.7 352
23/05/2020 22:30 5.3 100 0.0 0 0.0 7.9 28.4 349
23/05/2020 22:40 5.3 100 0.0 0 0.0 8.5 30.4 349
23/05/2020 22:50 5.2 100 0.0 0 0.0 9.2 33.1 352
23/05/2020 23:00 5.2 100 0.0 0 0.0 8.4 30.1 353
23/05/2020 23:10 5.0 100 0.0 0 0.0 9.0 32.2 353
23/05/2020 23:20 4.9 100 0.0 0 0.0 9.4 33.7 351
23/05/2020 23:30 4.8 100 0.0 0 0.0 9.0 32.3 350
23/05/2020 23:40 5.0 100 0.0 0 0.0 8.1 29.1 351
23/05/2020 23:50 5.0 100 0.0 0 0.0 8.6 30.8 354
Anterior Página 1 de 1 Siguiente
Los datos de precipitación registrados en estaciones que están en cumbres son inferiores a lo real, como consecuencia del efecto del viento y de la nieve.


NOTA: Tipo de datos según el color:
   - Valores diarios o 10 minutos correctos
   - Valores diarios calculados a partir de un número de datos 10 minutos menor que 144 y mayor que 120, o de un número de datos semihorarios menor que 48 y mayor que 40 (caso de las estaciones de INTIA y del Ministerio)
   - Valores diez minutos estimados


Contacto        Enlaces        Aviso legal